Time;durP1;ratioP1;P1;durP2;ratioP2;P2;SDS_P1;SDS_P2;PMS_P1;PMS_P2;Temp;Humidity;BMP_temperature;BMP_pressure;BME280_temperature;BME280_humidity;BME280_pressure;Samples;Min_cycle;Max_cycle;Signal;HPM_P1;HPM_P2
2023/10/23 00:01:38;;;;;;;18.80;6.20;;;;;;;17.77;60.89;98657.56;67878;1273;1016193;-66
2023/10/23 00:04:40;;;;;;;21.40;6.60;;;;;;;17.74;60.95;98657.52;67924;1273;1018313;-69
2023/10/23 00:07:43;;;;;;;20.50;6.60;;;;;;;17.67;61.11;98660.98;67871;1273;1016186;-68
2023/10/23 00:10:45;;;;;;;19.40;6.60;;;;;;;17.69;61.08;98664.20;67887;1273;1016266;-69
2023/10/23 00:13:48;;;;;;;;;;;;;;;17.78;61.10;98666.17;67906;1273;1016951;-65
2023/10/23 00:16:50;;;;;;;20.90;6.80;;;;;;;17.80;61.15;98666.86;67956;1273;1016015;-68
2023/10/23 00:19:52;;;;;;;24.10;7.60;;;;;;;17.76;61.29;98667.26;67909;1273;1015993;-69
2023/10/23 00:22:55;;;;;;;25.00;7.30;;;;;;;17.77;61.49;98664.52;67865;1273;1016821;-69
2023/10/23 00:25:57;;;;;;;21.80;6.60;;;;;;;17.82;61.29;98663.27;67888;1273;1015840;-70
2023/10/23 00:29:01;;;;;;;22.30;6.40;;;;;;;17.75;61.30;98663.80;67946;1273;1016457;-69
2023/10/23 00:32:04;;;;;;;22.30;6.80;;;;;;;17.74;60.89;98664.36;67938;1273;1015805;-69
2023/10/23 00:35:06;;;;;;;19.80;6.60;;;;;;;17.68;61.26;98667.21;67927;1273;1016327;-69
2023/10/23 00:38:08;;;;;;;23.70;6.00;;;;;;;17.89;60.33;98668.02;67909;1273;1015893;-69
2023/10/23 00:41:11;;;;;;;23.00;6.40;;;;;;;18.01;59.68;98671.15;67854;1273;1016428;-70
2023/10/23 00:44:14;;;;;;;21.50;7.00;;;;;;;18.08;59.33;98670.30;67885;1273;1016075;-69
2023/10/23 00:47:18;;;;;;;19.40;6.30;;;;;;;18.10;59.16;98669.58;67868;1273;1016048;-69
2023/10/23 00:50:20;;;;;;;20.60;6.90;;;;;;;18.00;59.24;98664.81;67913;1273;1016371;-69
2023/10/23 00:53:25;;;;;;;22.70;6.50;;;;;;;17.91;59.45;98662.63;67888;1273;1016483;-69
2023/10/23 00:56:27;;;;;;;24.50;7.00;;;;;;;17.86;59.35;98668.80;67887;1273;1016268;-70
2023/10/23 00:59:30;;;;;;;22.00;7.20;;;;;;;17.71;59.43;98671.36;67890;1273;1016629;-69
2023/10/23 01:02:32;;;;;;;21.60;7.50;;;;;;;17.75;59.15;98672.48;67898;1273;1016061;-70
2023/10/23 01:05:34;;;;;;;20.90;7.10;;;;;;;17.49;59.49;98685.80;67892;1273;1016479;-64
2023/10/23 01:08:37;;;;;;;23.60;7.80;;;;;;;17.30;59.80;98687.36;67868;1273;1016441;-67
2023/10/23 01:11:39;;;;;;;21.70;7.70;;;;;;;17.26;59.98;98690.34;67896;1273;1016732;-70
2023/10/23 01:14:42;;;;;;;22.90;7.60;;;;;;;17.16;60.61;98692.84;67901;1273;1016349;-67
2023/10/23 01:17:44;;;;;;;25.30;7.80;;;;;;;17.16;60.97;98691.48;67783;1273;1233729;-70
2023/10/23 01:20:47;;;;;;;19.60;7.20;;;;;;;17.27;60.99;98698.91;67929;1273;1016344;-70
2023/10/23 01:23:49;;;;;;;22.80;8.10;;;;;;;17.41;60.78;98703.67;67891;1273;1016409;-70
2023/10/23 01:26:51;;;;;;;22.70;7.70;;;;;;;17.54;60.87;98705.84;67882;1273;1016445;-69
2023/10/23 01:29:54;;;;;;;24.20;8.10;;;;;;;17.62;60.58;98712.34;67887;1273;1016096;-69
2023/10/23 01:32:56;;;;;;;23.90;8.50;;;;;;;17.70;60.50;98713.40;67926;1273;1016455;-69
2023/10/23 01:35:58;;;;;;;21.50;8.30;;;;;;;17.84;60.15;98717.28;67932;1273;1016226;-70
2023/10/23 01:39:01;;;;;;;26.90;7.90;;;;;;;17.92;60.07;98721.81;67890;1251;1016446;-65
2023/10/23 01:42:03;;;;;;;25.80;9.90;;;;;;;17.97;60.10;98723.34;67876;1273;1016317;-68
2023/10/23 01:45:06;;;;;;;28.10;10.10;;;;;;;17.81;60.43;98725.70;67908;1273;1016275;-70
2023/10/23 01:48:08;;;;;;;24.60;9.20;;;;;;;17.69;60.64;98724.64;67925;1273;1016418;-66
2023/10/23 01:51:11;;;;;;;27.50;10.20;;;;;;;17.64;61.09;98714.63;67897;1273;1016335;-68
2023/10/23 01:54:13;;;;;;;26.00;10.50;;;;;;;17.66;61.20;98715.18;67844;1273;1016377;-69
2023/10/23 01:57:15;;;;;;;27.50;11.10;;;;;;;17.63;61.44;98712.05;67894;1273;1016162;-67
2023/10/23 02:00:18;;;;;;;26.80;10.30;;;;;;;17.73;61.28;98710.16;67925;1273;1019088;-69
2023/10/23 02:03:20;;;;;;;29.30;11.90;;;;;;;17.87;60.75;98713.64;67907;1273;1016458;-67
2023/10/23 02:06:23;;;;;;;29.50;11.10;;;;;;;17.93;60.73;98717.31;67933;1273;1016227;-69
2023/10/23 02:09:25;;;;;;;28.70;11.90;;;;;;;17.93;60.54;98719.93;67864;1273;1016179;-70
2023/10/23 02:12:27;;;;;;;29.60;11.30;;;;;;;17.98;60.23;98721.44;67904;1273;1018920;-70
2023/10/23 02:15:30;;;;;;;31.90;13.10;;;;;;;17.90;60.37;98722.67;67890;1273;1018585;-69
2023/10/23 02:18:32;;;;;;;29.40;11.80;;;;;;;17.80;60.72;98728.17;67921;1273;1016186;-69
2023/10/23 02:21:35;;;;;;;29.70;12.80;;;;;;;17.52;61.73;98726.13;67928;1273;1016346;-70
2023/10/23 02:24:37;;;;;;;31.40;13.60;;;;;;;17.40;62.25;98726.05;67915;1273;1016081;-69
2023/10/23 02:27:40;;;;;;;31.80;12.50;;;;;;;17.43;62.11;98726.97;67872;1273;1016894;-70
2023/10/23 02:30:42;;;;;;;29.20;12.50;;;;;;;17.59;61.89;98719.21;67892;1273;1016433;-69
2023/10/23 02:33:45;;;;;;;29.20;12.70;;;;;;;17.64;61.74;98713.92;67942;1273;1016107;-70
2023/10/23 02:36:47;;;;;;;32.60;13.10;;;;;;;17.72;61.39;98717.66;67912;1273;1016331;-69
2023/10/23 02:39:49;;;;;;;30.10;12.70;;;;;;;17.79;61.09;98714.30;67873;1273;1016528;-70
2023/10/23 02:42:52;;;;;;;26.80;10.70;;;;;;;17.82;61.14;98712.26;67876;1273;1016491;-70
2023/10/23 02:45:54;;;;;;;29.00;11.80;;;;;;;17.82;60.83;98716.55;67892;1273;1016375;-67
2023/10/23 02:48:57;;;;;;;28.00;11.10;;;;;;;17.80;60.72;98717.45;67936;1273;1016464;-64
2023/10/23 02:52:00;;;;;;;25.50;9.90;;;;;;;17.72;60.93;98721.17;67889;1273;1016497;-67
2023/10/23 02:55:02;;;;;;;27.00;10.60;;;;;;;17.80;60.67;98720.96;67925;1273;1016504;-69
2023/10/23 02:58:04;;;;;;;29.30;11.00;;;;;;;17.77;60.51;98726.38;67945;1273;1016457;-69
2023/10/23 03:01:07;;;;;;;27.70;10.70;;;;;;;17.83;60.28;98724.79;67904;1273;1016402;-69
2023/10/23 03:04:10;;;;;;;28.00;10.70;;;;;;;17.92;60.14;98728.60;67893;1273;1016364;-69
2023/10/23 03:07:13;;;;;;;28.70;10.40;;;;;;;18.03;59.55;98728.58;67944;1273;1018054;-68
2023/10/23 03:10:15;;;;;;;;;;;;;;;17.95;59.60;98729.02;67922;1273;1016346;-69
2023/10/23 03:13:18;;;;;;;27.40;10.10;;;;;;;18.04;59.44;98736.17;67859;1273;1016660;-70
2023/10/23 03:16:20;;;;;;;27.40;10.40;;;;;;;18.14;59.36;98735.50;67897;1273;1016049;-69
2023/10/23 03:19:25;;;;;;;26.30;10.30;;;;;;;18.18;59.15;98734.80;67937;1273;1016063;-68
2023/10/23 03:22:27;;;;;;;23.80;9.70;;;;;;;18.29;59.13;98731.32;67884;1273;1016105;-68
2023/10/23 03:25:30;;;;;;;26.60;10.00;;;;;;;18.56;58.56;98740.61;67911;1273;1016403;-68
2023/10/23 03:28:32;;;;;;;23.80;9.30;;;;;;;18.50;58.63;98735.85;67883;1273;1016392;-68
2023/10/23 03:31:35;;;;;;;28.00;9.40;;;;;;;18.54;58.57;98739.89;67930;1273;1016531;-66
2023/10/23 03:34:37;;;;;;;27.80;10.10;;;;;;;18.68;58.21;98745.34;67931;1273;1016413;-68
2023/10/23 03:37:39;;;;;;;25.90;9.70;;;;;;;18.76;58.15;98742.80;67857;1273;1016370;-69
2023/10/23 03:40:42;;;;;;;24.90;9.60;;;;;;;18.84;57.83;98744.80;67879;1273;1016401;-68
2023/10/23 03:43:44;;;;;;;28.00;9.20;;;;;;;18.84;57.49;98741.82;67902;1273;1015765;-68
2023/10/23 03:46:47;;;;;;;23.00;9.40;;;;;;;18.79;57.41;98740.72;67900;1273;1018524;-69
2023/10/23 03:49:49;;;;;;;25.00;9.40;;;;;;;18.63;57.95;98740.80;67946;1273;1016073;-69
2023/10/23 03:52:52;;;;;;;24.40;9.50;;;;;;;18.60;58.11;98739.75;67896;1273;1016426;-68
2023/10/23 03:55:54;;;;;;;30.10;11.60;;;;;;;18.62;58.02;98739.30;67872;1273;1016090;-66
2023/10/23 03:58:56;;;;;;;26.00;10.10;;;;;;;18.61;57.96;98738.77;67885;1273;1016328;-66
2023/10/23 04:01:59;;;;;;;23.50;8.60;;;;;;;18.65;58.01;98739.81;67929;1273;1016329;-68
2023/10/23 04:05:01;;;;;;;25.60;8.30;;;;;;;18.77;57.65;98740.93;67930;1273;1016372;-67
2023/10/23 04:08:04;;;;;;;22.80;8.20;;;;;;;18.83;57.32;98738.96;67901;1273;1016291;-69
2023/10/23 04:11:07;;;;;;;22.50;8.00;;;;;;;18.87;57.35;98744.05;67913;1273;1018200;-67
2023/10/23 04:14:09;;;;;;;22.30;8.40;;;;;;;18.91;57.10;98742.59;67934;1273;1017879;-69
2023/10/23 04:17:12;;;;;;;22.60;8.40;;;;;;;18.86;56.98;98745.89;67881;1273;1016347;-69
2023/10/23 04:20:14;;;;;;;25.30;9.20;;;;;;;18.93;56.78;98745.96;67932;1273;1016462;-69
2023/10/23 04:23:17;;;;;;;24.50;9.70;;;;;;;18.92;56.76;98743.44;67887;1273;1016491;-69
2023/10/23 04:26:20;;;;;;;24.00;8.60;;;;;;;18.80;57.07;98741.02;67900;1273;1016407;-68
2023/10/23 04:29:22;;;;;;;23.80;8.70;;;;;;;18.88;56.83;98741.06;67913;1273;1017313;-68
2023/10/23 04:32:25;;;;;;;23.40;8.90;;;;;;;18.86;56.66;98746.29;67896;1273;1016445;-68
2023/10/23 04:35:27;;;;;;;23.90;8.90;;;;;;;18.80;56.61;98745.95;67920;1273;1016473;-67
2023/10/23 04:38:29;;;;;;;23.60;8.40;;;;;;;18.66;56.90;98754.68;67917;1273;1016657;-68
2023/10/23 04:41:32;;;;;;;24.20;8.60;;;;;;;18.60;56.80;98759.67;67925;1273;1016290;-68
2023/10/23 04:44:35;;;;;;;25.40;9.20;;;;;;;18.50;57.03;98759.81;67942;1273;1016304;-67
2023/10/23 04:47:37;;;;;;;23.60;9.00;;;;;;;18.52;57.02;98764.86;67917;1273;1016445;-68
2023/10/23 04:50:39;;;;;;;26.90;9.40;;;;;;;18.55;56.73;98767.84;67877;1273;1016453;-68
2023/10/23 04:53:42;;;;;;;25.70;8.80;;;;;;;18.56;56.48;98768.30;67920;1273;1016513;-67
2023/10/23 04:56:44;;;;;;;26.70;8.30;;;;;;;18.52;56.75;98768.42;67947;1273;1015975;-68
2023/10/23 04:59:47;;;;;;;22.90;8.90;;;;;;;18.52;56.66;98772.86;67871;1273;1016248;-68
2023/10/23 05:02:49;;;;;;;25.50;10.10;;;;;;;18.45;56.62;98771.06;67881;1273;1016614;-68
2023/10/23 05:05:52;;;;;;;;;;;;;;;18.44;56.59;98771.10;67915;1273;1016474;-67
2023/10/23 05:08:54;;;;;;;25.00;10.10;;;;;;;18.45;56.49;98775.65;67925;1273;1016344;-68
2023/10/23 05:11:57;;;;;;;29.80;10.00;;;;;;;18.45;56.40;98781.10;67881;1273;1016193;-67
2023/10/23 05:14:59;;;;;;;31.30;9.90;;;;;;;18.48;56.62;98792.13;67872;1273;1016337;-68
2023/10/23 05:18:02;;;;;;;27.60;9.90;;;;;;;18.62;56.38;98798.65;67864;1273;1016376;-68
2023/10/23 05:21:04;;;;;;;;;;;;;;;18.67;56.37;98802.92;67933;1273;1016475;-68
2023/10/23 05:24:06;;;;;;;33.00;13.00;;;;;;;18.73;56.34;98809.11;67956;1273;1016315;-68
2023/10/23 05:27:09;;;;;;;;;;;;;;;18.75;56.51;98812.48;67900;1273;1016269;-67
2023/10/23 05:30:11;;;;;;;27.90;9.50;;;;;;;18.71;56.54;98818.70;67869;1273;1016329;-65
2023/10/23 05:33:14;;;;;;;27.90;10.40;;;;;;;18.75;56.40;98824.55;67936;1273;1016323;-65
2023/10/23 05:36:16;;;;;;;29.50;10.10;;;;;;;18.87;56.42;98826.45;67947;1273;1018137;-67
2023/10/23 05:39:19;;;;;;;27.00;10.20;;;;;;;18.98;56.01;98826.08;67922;1273;1016284;-67
2023/10/23 05:42:21;;;;;;;26.40;9.30;;;;;;;18.94;56.16;98827.94;67907;1273;1016954;-63
2023/10/23 05:45:23;;;;;;;26.70;8.80;;;;;;;19.03;56.13;98831.96;67863;1273;1016488;-68
2023/10/23 05:48:26;;;;;;;25.90;9.10;;;;;;;19.16;56.13;98836.65;67934;1273;1016432;-68
2023/10/23 05:51:28;;;;;;;24.60;8.60;;;;;;;19.16;55.86;98838.33;67932;1273;1016227;-68
2023/10/23 05:54:31;;;;;;;26.40;9.20;;;;;;;19.15;55.92;98838.41;67904;1273;1016045;-67
2023/10/23 05:57:33;;;;;;;24.00;8.10;;;;;;;19.28;55.61;98843.30;67861;1273;1016474;-68
2023/10/23 06:00:35;;;;;;;26.90;9.20;;;;;;;19.22;55.41;98849.48;67914;1273;1016331;-68
2023/10/23 06:03:38;;;;;;;27.90;8.70;;;;;;;19.13;55.63;98850.14;67868;1273;1016435;-68
2023/10/23 06:06:40;;;;;;;;;;;;;;;19.10;55.72;98857.23;67932;1273;1016171;-68
2023/10/23 06:09:43;;;;;;;46.10;15.60;;;;;;;19.00;55.92;98862.94;67918;1273;1016580;-69
2023/10/23 06:12:45;;;;;;;30.10;11.40;;;;;;;18.95;56.36;98862.20;67886;1273;1016492;-68
2023/10/23 06:15:48;;;;;;;30.60;10.60;;;;;;;18.95;56.26;98863.42;67867;1273;1016498;-68
2023/10/23 06:18:50;;;;;;;27.30;9.10;;;;;;;18.91;56.35;98865.89;67911;1273;1016098;-68
2023/10/23 06:21:53;;;;;;;29.40;10.10;;;;;;;18.82;56.23;98874.33;67918;1273;1016461;-68
2023/10/23 06:24:56;;;;;;;26.20;8.80;;;;;;;18.84;56.41;98877.88;67848;1273;1016607;-67
2023/10/23 06:27:58;;;;;;;28.90;9.20;;;;;;;18.83;56.25;98880.98;67883;1273;1016491;-63
2023/10/23 06:31:01;;;;;;;26.30;8.70;;;;;;;18.76;56.24;98878.77;67922;1273;1016869;-68
2023/10/23 06:34:03;;;;;;;27.60;8.90;;;;;;;18.80;56.14;98880.38;67893;1273;1016126;-68
2023/10/23 06:37:07;;;;;;;28.00;9.50;;;;;;;18.80;56.22;98884.64;67894;1273;1016480;-69
2023/10/23 06:40:09;;;;;;;23.50;7.70;;;;;;;18.87;56.25;98881.72;67910;1273;1016623;-67
2023/10/23 06:43:11;;;;;;;25.80;8.10;;;;;;;18.97;55.86;98878.79;67894;1273;1016379;-62
2023/10/23 06:46:14;;;;;;;29.50;9.30;;;;;;;18.87;55.50;98880.98;67881;1273;1016341;-64
2023/10/23 06:49:16;;;;;;;24.50;8.90;;;;;;;18.75;55.80;98882.13;67875;1273;1016435;-65
2023/10/23 06:52:19;;;;;;;26.60;8.30;;;;;;;18.74;55.92;98883.39;67927;1273;1016381;-67
2023/10/23 06:55:24;;;;;;;31.50;9.30;;;;;;;18.63;56.11;98886.59;67864;1273;1016296;-64
2023/10/23 06:58:26;;;;;;;27.00;8.30;;;;;;;18.64;56.12;98888.20;67897;1273;1016446;-68
2023/10/23 07:01:29;;;;;;;24.20;8.10;;;;;;;18.65;56.17;98891.67;67946;1260;1016949;-64
2023/10/23 07:04:31;;;;;;;26.80;8.10;;;;;;;18.75;56.22;98892.01;67944;1273;1016128;-66
2023/10/23 07:07:34;;;;;;;26.40;8.40;;;;;;;18.87;56.09;98892.14;67884;1273;1016274;-68
2023/10/23 07:10:36;;;;;;;24.50;8.20;;;;;;;18.81;56.52;98890.70;67895;1273;1016421;-68
2023/10/23 07:13:38;;;;;;;22.90;7.80;;;;;;;18.84;56.28;98892.04;67906;1273;1018117;-68
2023/10/23 07:16:41;;;;;;;26.20;9.10;;;;;;;18.80;56.32;98895.23;67903;1273;1016409;-67
2023/10/23 07:19:43;;;;;;;26.40;8.00;;;;;;;18.85;56.38;98894.13;67922;1273;1016486;-68
2023/10/23 07:22:46;;;;;;;;;;;;;;;18.97;56.17;98894.23;67926;1273;1016347;-69
2023/10/23 07:25:48;;;;;;;29.30;8.30;;;;;;;19.07;56.16;98890.77;67872;1273;1018850;-68
2023/10/23 07:28:51;;;;;;;24.40;8.40;;;;;;;19.26;55.82;98885.59;67885;1273;1016418;-68
2023/10/23 07:31:53;;;;;;;;;;;;;;;19.49;55.67;98893.34;67938;1273;1016751;-68
2023/10/23 07:34:56;;;;;;;27.20;9.00;;;;;;;19.57;55.33;98897.38;67895;1273;1016313;-68
2023/10/23 07:37:58;;;;;;;26.40;8.90;;;;;;;19.32;55.52;98893.73;67881;1273;1016777;-68
2023/10/23 07:41:01;;;;;;;27.40;9.40;;;;;;;19.28;55.94;98893.63;67871;1273;1016002;-69
2023/10/23 07:44:04;;;;;;;29.00;10.90;;;;;;;19.27;55.94;98896.17;67933;1273;1016099;-67
2023/10/23 07:47:06;;;;;;;;;;;;;;;19.45;55.96;98899.27;67892;1273;1016460;-66
2023/10/23 07:50:09;;;;;;;29.20;9.60;;;;;;;19.39;55.65;98904.55;67895;1273;1018444;-66
2023/10/23 07:53:11;;;;;;;26.50;9.00;;;;;;;19.27;55.84;98907.02;67915;1273;1017621;-66
2023/10/23 07:56:14;;;;;;;;;;;;;;;19.30;55.86;98909.56;67916;1273;1016417;-69
2023/10/23 07:59:17;;;;;;;24.10;7.90;;;;;;;19.42;55.71;98909.75;67887;1273;1016006;-68
2023/10/23 08:02:19;;;;;;;27.80;7.90;;;;;;;19.27;55.53;98915.67;67887;1273;1016413;-69
2023/10/23 08:05:21;;;;;;;23.30;8.00;;;;;;;19.36;55.44;98916.54;67911;1273;1016388;-69
2023/10/23 08:08:24;;;;;;;25.90;8.20;;;;;;;19.50;55.25;98919.12;67905;1273;1016424;-69
2023/10/23 08:11:28;;;;;;;;;;;;;;;19.56;55.22;98917.69;67926;1273;1016672;-66
2023/10/23 08:14:31;;;;;;;27.30;8.90;;;;;;;19.59;55.41;98922.75;67874;1273;1016182;-66
2023/10/23 08:17:33;;;;;;;;;;;;;;;19.48;55.22;98917.90;67921;1273;1016520;-69
2023/10/23 08:20:36;;;;;;;28.40;8.60;;;;;;;19.59;55.18;98921.50;67899;1273;1016114;-69
2023/10/23 08:23:38;;;;;;;27.10;8.40;;;;;;;19.81;55.41;98925.23;67903;1273;1015955;-69
2023/10/23 08:26:40;;;;;;;27.80;8.70;;;;;;;20.07;54.62;98926.80;67956;1273;1016826;-69
2023/10/23 08:29:43;;;;;;;27.70;9.00;;;;;;;20.06;54.22;98930.05;67911;1273;1017719;-69
2023/10/23 08:32:45;;;;;;;24.30;8.10;;;;;;;20.08;54.35;98935.36;67888;1273;1016355;-69
2023/10/23 08:35:48;;;;;;;26.80;9.40;;;;;;;20.05;54.59;98936.76;67892;1273;1016350;-67
2023/10/23 08:38:50;;;;;;;24.60;8.20;;;;;;;20.14;54.58;98939.21;67911;1273;1016419;-66
2023/10/23 08:41:54;;;;;;;25.40;7.40;;;;;;;20.20;54.14;98940.95;67883;1273;1016379;-70
2023/10/23 08:44:57;;;;;;;26.90;7.80;;;;;;;20.11;54.56;98938.42;68073;1273;1016459;-69
2023/10/23 08:47:59;;;;;;;25.30;8.00;;;;;;;20.25;54.56;98938.77;67875;1273;1016028;-68
2023/10/23 08:51:02;;;;;;;23.10;7.10;;;;;;;20.35;54.65;98937.49;67906;1273;1016461;-69
2023/10/23 08:54:04;;;;;;;24.10;7.40;;;;;;;20.26;53.98;98939.65;67914;1273;1016976;-68
2023/10/23 08:57:09;;;;;;;21.60;7.30;;;;;;;20.30;54.15;98938.28;67920;1273;1016311;-66
2023/10/23 09:00:12;;;;;;;24.80;8.20;;;;;;;20.38;54.13;98942.65;67909;1273;1017066;-69
2023/10/23 09:03:14;;;;;;;;;;;;;;;20.38;53.76;98947.11;67901;1273;1016408;-68
2023/10/23 09:06:17;;;;;;;24.00;7.10;;;;;;;20.39;54.41;98948.12;67853;1273;1018036;-66
2023/10/23 09:09:19;;;;;;;21.60;6.30;;;;;;;20.46;54.25;98953.77;67882;1273;1016408;-69
2023/10/23 09:12:22;;;;;;;22.30;7.40;;;;;;;20.62;54.03;98953.77;67917;1273;1016402;-69
2023/10/23 09:15:24;;;;;;;24.50;7.60;;;;;;;20.66;53.51;98958.17;67931;1273;1016421;-69
2023/10/23 09:18:27;;;;;;;23.60;7.30;;;;;;;20.64;53.69;98956.62;67911;1273;1016436;-69
2023/10/23 09:21:29;;;;;;;26.10;7.60;;;;;;;20.71;54.29;98954.88;67865;1273;1018899;-70
2023/10/23 09:24:32;;;;;;;23.60;7.10;;;;;;;20.94;53.99;98956.68;67888;1273;1016441;-69
2023/10/23 09:27:34;;;;;;;24.80;7.80;;;;;;;20.93;53.46;98956.55;67946;1273;1016355;-69
2023/10/23 09:30:37;;;;;;;24.20;7.70;;;;;;;20.86;53.43;98958.16;67904;1273;1016365;-69
2023/10/23 09:33:39;;;;;;;27.50;7.10;;;;;;;20.91;53.33;98960.63;67876;1273;1018839;-69
2023/10/23 09:36:42;;;;;;;22.70;7.10;;;;;;;20.83;53.02;98954.61;67916;1273;1016245;-69
2023/10/23 09:39:44;;;;;;;23.10;6.50;;;;;;;20.75;53.20;98959.48;67942;1273;1016716;-69
2023/10/23 09:42:47;;;;;;;23.20;6.30;;;;;;;20.75;53.00;98956.77;67954;1273;1016284;-69
2023/10/23 09:45:49;;;;;;;22.40;6.50;;;;;;;20.77;52.80;98952.10;67862;1273;1016390;-69
2023/10/23 09:48:52;;;;;;;23.90;6.40;;;;;;;20.72;52.76;98950.90;67882;1273;1016252;-68
2023/10/23 09:51:54;;;;;;;21.90;6.50;;;;;;;20.82;53.17;98950.36;67919;1273;1019489;-68
2023/10/23 09:54:57;;;;;;;22.80;6.10;;;;;;;21.07;53.00;98948.77;67916;1273;1016337;-69
2023/10/23 09:58:00;;;;;;;20.70;5.60;;;;;;;21.05;52.69;98945.05;67854;1273;1016362;-66
2023/10/23 10:01:03;;;;;;;26.50;7.70;;;;;;;21.14;53.19;98940.20;67899;1273;1016341;-68
2023/10/23 10:04:05;;;;;;;22.40;6.00;;;;;;;21.23;53.07;98941.38;67868;1273;1016412;-68
2023/10/23 10:07:08;;;;;;;25.20;6.80;;;;;;;21.29;52.92;98940.40;67942;1273;1016451;-67
2023/10/23 10:10:11;;;;;;;25.00;8.10;;;;;;;21.33;52.78;98937.65;67907;1273;1016391;-66
2023/10/23 10:13:13;;;;;;;28.00;7.20;;;;;;;21.53;52.14;98935.48;67842;1273;1016386;-68
2023/10/23 10:16:16;;;;;;;23.60;7.10;;;;;;;21.56;52.50;98935.33;67877;1273;1016198;-68
2023/10/23 10:19:18;;;;;;;25.40;7.30;;;;;;;21.74;52.65;98932.76;67953;1273;1016416;-68
2023/10/23 10:22:21;;;;;;;26.90;7.90;;;;;;;21.87;51.71;98934.95;67925;1273;1016226;-68
2023/10/23 10:25:23;;;;;;;22.50;6.80;;;;;;;21.73;51.96;98935.15;67925;1273;1015981;-68
2023/10/23 10:28:26;;;;;;;21.80;6.50;;;;;;;21.71;52.05;98934.63;67881;1273;1016227;-67
2023/10/23 10:31:28;;;;;;;;;;;;;;;21.84;52.31;98934.88;67906;1273;1016455;-67
2023/10/23 10:34:30;;;;;;;20.60;6.00;;;;;;;22.11;51.80;98930.29;67905;1273;1016501;-66
2023/10/23 10:37:33;;;;;;;18.90;5.80;;;;;;;22.19;51.03;98930.97;67904;1273;1016343;-68
2023/10/23 10:40:35;;;;;;;23.30;6.50;;;;;;;22.23;51.41;98922.90;67906;1273;1016220;-67
2023/10/23 10:43:38;;;;;;;21.80;6.60;;;;;;;22.41;51.00;98925.40;67897;1273;1016504;-69
2023/10/23 10:46:40;;;;;;;21.40;5.80;;;;;;;22.37;50.68;98927.17;67924;1273;1016346;-67
2023/10/23 10:49:43;;;;;;;23.70;6.20;;;;;;;22.41;50.92;98926.20;67935;1273;1018544;-68
2023/10/23 10:52:45;;;;;;;36.30;8.40;;;;;;;22.36;50.83;98923.98;67908;1273;1016217;-68
2023/10/23 10:55:50;;;;;;;;;;;;;;;22.38;51.23;98922.21;67888;1273;1016586;-68
2023/10/23 10:58:53;;;;;;;28.00;7.60;;;;;;;22.61;50.99;98922.58;67915;1273;1016413;-67
2023/10/23 11:01:56;;;;;;;22.20;6.50;;;;;;;22.55;51.35;98921.38;67903;1273;1016358;-66
2023/10/23 11:04:58;;;;;;;23.50;5.90;;;;;;;22.78;50.88;98913.94;67902;1273;1016250;-68
2023/10/23 11:08:01;;;;;;;22.80;6.00;;;;;;;22.94;50.61;98915.03;67941;1273;1016393;-68
2023/10/23 11:11:04;;;;;;;24.30;6.20;;;;;;;22.95;50.99;98920.75;67852;1273;1016370;-68
2023/10/23 11:14:07;;;;;;;19.10;5.80;;;;;;;23.23;50.14;98918.26;67910;1273;1016463;-68
2023/10/23 11:17:09;;;;;;;23.20;6.50;;;;;;;23.23;50.03;98916.78;67860;1273;1016388;-67
2023/10/23 11:20:12;;;;;;;22.10;6.40;;;;;;;23.26;48.96;98916.44;67865;1273;1016465;-68
2023/10/23 11:23:14;;;;;;;22.90;6.40;;;;;;;23.24;49.55;98914.61;67899;1273;1016450;-68
2023/10/23 11:26:17;;;;;;;;;;;;;;;23.43;49.48;98912.52;67921;1273;1016442;-68
2023/10/23 11:29:19;;;;;;;25.60;7.10;;;;;;;23.43;48.98;98913.79;67896;1273;1016223;-68
2023/10/23 11:32:21;;;;;;;25.80;6.50;;;;;;;23.37;49.28;98910.23;67882;1273;1016469;-67
2023/10/23 11:35:24;;;;;;;24.50;6.20;;;;;;;23.61;48.81;98913.95;67873;1273;1016463;-68
2023/10/23 11:38:27;;;;;;;22.30;6.20;;;;;;;23.78;48.66;98911.79;67893;1273;1016152;-68
2023/10/23 11:41:30;;;;;;;21.80;6.30;;;;;;;23.90;48.81;98912.23;67874;1273;1016406;-66
2023/10/23 11:44:33;;;;;;;20.70;6.20;;;;;;;24.13;48.46;98909.39;67876;1273;1016413;-65
2023/10/23 11:47:37;;;;;;;24.20;6.30;;;;;;;24.27;48.29;98910.34;67849;1273;1019169;-68
2023/10/23 11:50:39;;;;;;;25.00;5.60;;;;;;;24.45;47.95;98907.19;67880;1273;1016547;-68
2023/10/23 11:53:42;;;;;;;;;;;;;;;24.47;46.81;98905.90;67827;1273;1016217;-67
2023/10/23 11:56:44;;;;;;;21.50;6.40;;;;;;;24.44;46.47;98905.85;67868;1273;1016287;-67
2023/10/23 11:59:47;;;;;;;;;;;;;;;24.29;46.97;98903.80;67916;1273;1016362;-67
2023/10/23 12:02:49;;;;;;;25.80;6.80;;;;;;;24.45;46.93;98905.38;67892;1273;1016394;-68
2023/10/23 12:05:51;;;;;;;;;;;;;;;24.45;46.88;98908.23;67886;1273;1016131;-68
2023/10/23 12:08:54;;;;;;;19.60;4.70;;;;;;;24.21;45.90;98910.23;67848;1273;1016464;-67
2023/10/23 12:11:56;;;;;;;;;;;;;;;23.83;45.90;98912.52;67928;1273;1016410;-67
2023/10/23 12:14:59;;;;;;;24.20;5.20;;;;;;;23.49;46.59;98908.14;67907;1273;1016411;-67
2023/10/23 12:18:04;;;;;;;21.40;5.80;;;;;;;23.27;46.94;98908.10;67864;1273;1016416;-68
2023/10/23 12:21:06;;;;;;;24.50;5.40;;;;;;;23.22;47.43;98905.52;67923;1273;1017179;-67
2023/10/23 12:24:09;;;;;;;24.60;5.50;;;;;;;23.31;47.85;98902.90;67939;1273;1017374;-68
2023/10/23 12:27:11;;;;;;;22.10;5.30;;;;;;;23.50;47.48;98905.66;67922;1273;1016214;-67
2023/10/23 12:30:14;;;;;;;;;;;;;;;23.66;47.35;98905.64;67861;1273;1016348;-67
2023/10/23 12:33:17;;;;;;;22.10;6.60;;;;;;;23.80;47.29;98901.95;67949;1273;1016481;-67
2023/10/23 12:36:19;;;;;;;22.60;6.00;;;;;;;24.09;47.41;98898.66;67898;1273;1016597;-67
2023/10/23 12:39:21;;;;;;;19.50;5.00;;;;;;;24.40;47.05;98892.76;67947;1273;1016298;-67
2023/10/23 12:42:24;;;;;;;19.10;5.20;;;;;;;24.58;46.98;98893.06;67883;1273;1018880;-66
2023/10/23 12:45:27;;;;;;;20.50;4.60;;;;;;;24.91;46.77;98887.55;67859;1273;1015949;-68
2023/10/23 12:48:29;;;;;;;18.00;4.20;;;;;;;25.06;46.28;98881.52;67891;1273;1016320;-63
2023/10/23 12:51:32;;;;;;;;;;;;;;;25.22;46.03;98884.41;67929;1273;1016556;-67
2023/10/23 12:54:34;;;;;;;18.70;4.10;;;;;;;25.25;45.68;98886.15;67863;1273;1016198;-67
2023/10/23 12:57:36;;;;;;;;;;;;;;;25.32;46.07;98883.05;67859;1273;1016365;-67
2023/10/23 13:00:39;;;;;;;24.10;4.20;;;;;;;25.36;44.42;98880.89;67877;1273;1016828;-67
2023/10/23 13:03:41;;;;;;;;;;;;;;;25.26;44.93;98880.70;67885;1273;1016140;-68
2023/10/23 13:06:43;;;;;;;18.50;4.10;;;;;;;25.69;45.03;98875.48;67927;1273;1016373;-67
2023/10/23 13:09:46;;;;;;;;;;;;;;;26.29;44.65;98873.23;67880;1273;1018238;-67
2023/10/23 13:12:49;;;;;;;;;;;;;;;26.58;43.24;98870.29;67840;1273;1016375;-67
2023/10/23 13:15:51;;;;;;;;;;;;;;;26.53;42.70;98865.23;67703;1273;1016430;-67
2023/10/23 13:18:54;;;;;;;18.50;3.70;;;;;;;26.44;42.04;98864.42;67895;1273;1017057;-64
2023/10/23 13:21:56;;;;;;;15.10;3.50;;;;;;;26.33;42.89;98861.11;67911;1272;1016397;-67
2023/10/23 13:24:59;;;;;;;15.30;3.60;;;;;;;26.40;42.78;98857.85;67866;1273;1016381;-67
2023/10/23 13:28:01;;;;;;;12.20;3.10;;;;;;;26.25;42.13;98858.32;67934;1273;1018050;-63
2023/10/23 13:31:04;;;;;;;13.10;3.30;;;;;;;25.69;42.41;98859.54;67912;1273;1018819;-68
2023/10/23 13:34:06;;;;;;;20.10;4.60;;;;;;;25.21;43.61;98856.06;67864;1251;1016185;-67
2023/10/23 13:37:09;;;;;;;;;;;;;;;25.30;44.25;98858.79;67885;1273;1016458;-68
2023/10/23 13:40:12;;;;;;;20.60;4.80;;;;;;;25.51;44.08;98857.65;67870;1273;1017409;-67
2023/10/23 13:43:14;;;;;;;21.70;4.50;;;;;;;25.89;43.64;98848.13;67923;1273;1016439;-67
2023/10/23 13:46:18;;;;;;;21.50;4.10;;;;;;;26.09;42.99;98847.48;67866;1273;1016506;-68
2023/10/23 13:49:20;;;;;;;19.10;3.50;;;;;;;26.28;42.84;98841.67;67887;1273;1016396;-67
2023/10/23 13:52:23;;;;;;;19.30;3.70;;;;;;;26.31;41.74;98836.81;67914;1273;1019106;-67
2023/10/23 13:55:25;;;;;;;13.50;3.00;;;;;;;26.36;42.39;98841.36;67873;1273;1016426;-68